sensor_id;sensor_type;location;lat;lon;timestamp;pressure;altitude;pressure_sealevel;temperature;humidity
9969;BME280;5025;48.890;9.278;2023-02-11T00:01:47;100871.78;;;0.34;61.36
9969;BME280;5025;48.890;9.278;2023-02-11T00:04:12;100872.13;;;0.29;61.66
9969;BME280;5025;48.890;9.278;2023-02-11T00:06:38;100866.06;;;0.27;61.41
9969;BME280;5025;48.890;9.278;2023-02-11T00:09:04;100867.03;;;0.26;61.48
9969;BME280;5025;48.890;9.278;2023-02-11T00:11:30;100868.97;;;0.24;61.61
9969;BME280;5025;48.890;9.278;2023-02-11T00:14:00;100868.13;;;0.24;61.53
9969;BME280;5025;48.890;9.278;2023-02-11T00:16:27;100872.56;;;0.23;61.40
9969;BME280;5025;48.890;9.278;2023-02-11T00:18:53;100858.53;;;0.21;61.59
9969;BME280;5025;48.890;9.278;2023-02-11T00:21:22;100868.34;;;0.21;61.75
9969;BME280;5025;48.890;9.278;2023-02-11T00:23:48;100863.25;;;0.17;61.56
9969;BME280;5025;48.890;9.278;2023-02-11T00:26:16;100865.91;;;0.17;61.82
9969;BME280;5025;48.890;9.278;2023-02-11T00:28:43;100858.16;;;0.14;61.79
9969;BME280;5025;48.890;9.278;2023-02-11T00:31:08;100845.81;;;0.13;61.88
9969;BME280;5025;48.890;9.278;2023-02-11T00:33:33;100853.91;;;0.12;61.76
9969;BME280;5025;48.890;9.278;2023-02-11T00:36:04;100856.66;;;0.10;61.95
9969;BME280;5025;48.890;9.278;2023-02-11T00:38:29;100849.03;;;0.06;62.07
9969;BME280;5025;48.890;9.278;2023-02-11T00:40:54;100856.88;;;0.07;62.00
9969;BME280;5025;48.890;9.278;2023-02-11T00:43:20;100862.31;;;0.06;62.01
9969;BME280;5025;48.890;9.278;2023-02-11T00:45:45;100859.75;;;0.04;62.02
9969;BME280;5025;48.890;9.278;2023-02-11T00:48:10;100856.25;;;0.04;62.11
9969;BME280;5025;48.890;9.278;2023-02-11T00:50:35;100867.72;;;0.04;61.90
9969;BME280;5025;48.890;9.278;2023-02-11T00:53:01;100861.56;;;0.04;62.03
9969;BME280;5025;48.890;9.278;2023-02-11T00:55:26;100863.38;;;0.03;62.29
9969;BME280;5025;48.890;9.278;2023-02-11T00:57:51;100856.69;;;-0.03;62.16
9969;BME280;5025;48.890;9.278;2023-02-11T01:00:17;100852.44;;;-0.05;62.36
9969;BME280;5025;48.890;9.278;2023-02-11T01:02:42;100843.97;;;-0.10;62.40
9969;BME280;5025;48.890;9.278;2023-02-11T01:05:07;100833.56;;;-0.13;62.33
9969;BME280;5025;48.890;9.278;2023-02-11T01:07:33;100839.09;;;-0.16;62.26
9969;BME280;5025;48.890;9.278;2023-02-11T01:09:58;100823.59;;;-0.23;62.46
9969;BME280;5025;48.890;9.278;2023-02-11T01:12:24;100821.38;;;-0.29;62.64
9969;BME280;5025;48.890;9.278;2023-02-11T01:14:49;100820.09;;;-0.36;62.89
9969;BME280;5025;48.890;9.278;2023-02-11T01:17:15;100814.38;;;-0.43;62.67
9969;BME280;5025;48.890;9.278;2023-02-11T01:19:40;100820.63;;;-0.44;62.83
9969;BME280;5025;48.890;9.278;2023-02-11T01:22:06;100807.56;;;-0.47;62.77
9969;BME280;5025;48.890;9.278;2023-02-11T01:24:31;100810.34;;;-0.48;62.81
9969;BME280;5025;48.890;9.278;2023-02-11T01:26:57;100809.38;;;-0.47;63.04
9969;BME280;5025;48.890;9.278;2023-02-11T01:29:22;100810.22;;;-0.47;63.14
9969;BME280;5025;48.890;9.278;2023-02-11T01:31:48;100807.47;;;-0.45;62.86
9969;BME280;5025;48.890;9.278;2023-02-11T01:34:13;100813.00;;;-0.48;63.05
9969;BME280;5025;48.890;9.278;2023-02-11T01:36:39;100807.78;;;-0.50;63.19
9969;BME280;5025;48.890;9.278;2023-02-11T01:39:05;100811.41;;;-0.51;63.29
9969;BME280;5025;48.890;9.278;2023-02-11T01:41:30;100804.28;;;-0.50;63.29
9969;BME280;5025;48.890;9.278;2023-02-11T01:43:55;100809.59;;;-0.50;63.22
9969;BME280;5025;48.890;9.278;2023-02-11T01:46:35;100817.34;;;-0.47;63.23
9969;BME280;5025;48.890;9.278;2023-02-11T01:49:06;100823.38;;;-0.45;63.54
9969;BME280;5025;48.890;9.278;2023-02-11T01:51:39;100809.19;;;-0.44;63.40
9969;BME280;5025;48.890;9.278;2023-02-11T01:54:08;100814.16;;;-0.40;63.51
9969;BME280;5025;48.890;9.278;2023-02-11T01:56:56;100816.72;;;-0.38;63.45
9969;BME280;5025;48.890;9.278;2023-02-11T02:05:37;100798.84;;;-0.36;63.41
9969;BME280;5025;48.890;9.278;2023-02-11T02:08:15;100794.53;;;-0.37;63.50
9969;BME280;5025;48.890;9.278;2023-02-11T02:10:44;100797.06;;;-0.35;63.33
9969;BME280;5025;48.890;9.278;2023-02-11T02:13:10;100803.94;;;-0.33;63.21
9969;BME280;5025;48.890;9.278;2023-02-11T02:15:37;100798.63;;;-0.33;63.44
9969;BME280;5025;48.890;9.278;2023-02-11T02:21:08;100799.63;;;-0.34;63.67
9969;BME280;5025;48.890;9.278;2023-02-11T02:29:41;100784.09;;;-0.27;63.52
9969;BME280;5025;48.890;9.278;2023-02-11T02:32:37;100785.91;;;-0.28;63.60
9969;BME280;5025;48.890;9.278;2023-02-11T02:37:53;100770.75;;;-0.39;63.79
9969;BME280;5025;48.890;9.278;2023-02-11T02:40:31;100754.50;;;-0.47;63.71
9969;BME280;5025;48.890;9.278;2023-02-11T02:42:58;100749.63;;;-0.53;63.88
9969;BME280;5025;48.890;9.278;2023-02-11T02:45:25;100744.75;;;-0.59;63.99
9969;BME280;5025;48.890;9.278;2023-02-11T02:47:50;100741.25;;;-0.60;64.28
9969;BME280;5025;48.890;9.278;2023-02-11T02:50:20;100738.50;;;-0.58;64.08
9969;BME280;5025;48.890;9.278;2023-02-11T02:56:00;100749.63;;;-0.53;64.24
9969;BME280;5025;48.890;9.278;2023-02-11T03:01:25;100748.16;;;-0.57;64.51
9969;BME280;5025;48.890;9.278;2023-02-11T03:04:07;100744.53;;;-0.56;64.62
9969;BME280;5025;48.890;9.278;2023-02-11T03:09:08;100732.34;;;-0.59;64.51
9969;BME280;5025;48.890;9.278;2023-02-11T03:11:37;100730.84;;;-0.63;64.78
9969;BME280;5025;48.890;9.278;2023-02-11T03:14:11;100732.66;;;-0.63;64.67
9969;BME280;5025;48.890;9.278;2023-02-11T03:16:38;100727.03;;;-0.72;64.92
9969;BME280;5025;48.890;9.278;2023-02-11T03:19:23;100729.78;;;-0.73;64.93
9969;BME280;5025;48.890;9.278;2023-02-11T03:21:51;100730.00;;;-0.76;65.12
9969;BME280;5025;48.890;9.278;2023-02-11T03:24:27;100727.69;;;-0.81;65.43
9969;BME280;5025;48.890;9.278;2023-02-11T03:26:57;100724.50;;;-0.86;65.36
9969;BME280;5025;48.890;9.278;2023-02-11T03:32:16;100723.47;;;-0.83;65.59
9969;BME280;5025;48.890;9.278;2023-02-11T03:34:48;100724.09;;;-0.80;65.53
9969;BME280;5025;48.890;9.278;2023-02-11T03:37:22;100730.00;;;-0.76;65.85
9969;BME280;5025;48.890;9.278;2023-02-11T03:39:54;100727.91;;;-0.71;65.73
9969;BME280;5025;48.890;9.278;2023-02-11T03:42:23;100723.22;;;-0.67;65.78
9969;BME280;5025;48.890;9.278;2023-02-11T03:44:56;100725.75;;;-0.66;65.52
9969;BME280;5025;48.890;9.278;2023-02-11T03:47:25;100725.88;;;-0.67;65.74
9969;BME280;5025;48.890;9.278;2023-02-11T03:49:53;100722.59;;;-0.71;65.68
9969;BME280;5025;48.890;9.278;2023-02-11T03:52:21;100741.06;;;-0.69;65.81
9969;BME280;5025;48.890;9.278;2023-02-11T03:54:50;100748.91;;;-0.68;66.14
9969;BME280;5025;48.890;9.278;2023-02-11T03:57:17;100746.78;;;-0.63;65.78
9969;BME280;5025;48.890;9.278;2023-02-11T03:59:50;100741.25;;;-0.60;65.88
9969;BME280;5025;48.890;9.278;2023-02-11T04:02:16;100746.34;;;-0.57;66.06
9969;BME280;5025;48.890;9.278;2023-02-11T04:04:41;100745.91;;;-0.50;65.94
9969;BME280;5025;48.890;9.278;2023-02-11T04:07:07;100750.88;;;-0.46;65.94
9969;BME280;5025;48.890;9.278;2023-02-11T04:09:33;100745.25;;;-0.41;65.85
9969;BME280;5025;48.890;9.278;2023-02-11T04:11:59;100748.63;;;-0.39;66.04
9969;BME280;5025;48.890;9.278;2023-02-11T04:14:24;100747.59;;;-0.37;65.83
9969;BME280;5025;48.890;9.278;2023-02-11T04:16:49;100748.31;;;-0.34;65.88
9969;BME280;5025;48.890;9.278;2023-02-11T04:19:15;100744.59;;;-0.32;66.06
9969;BME280;5025;48.890;9.278;2023-02-11T04:21:40;100737.59;;;-0.33;66.07
9969;BME280;5025;48.890;9.278;2023-02-11T04:24:05;100745.31;;;-0.30;66.08
9969;BME280;5025;48.890;9.278;2023-02-11T04:26:31;100751.63;;;-0.31;66.04
9969;BME280;5025;48.890;9.278;2023-02-11T04:28:56;100744.59;;;-0.32;66.41
9969;BME280;5025;48.890;9.278;2023-02-11T04:31:22;100750.03;;;-0.33;66.37
9969;BME280;5025;48.890;9.278;2023-02-11T04:33:47;100746.75;;;-0.37;66.40
9969;BME280;5025;48.890;9.278;2023-02-11T04:36:12;100741.75;;;-0.42;66.48
9969;BME280;5025;48.890;9.278;2023-02-11T04:38:37;100735.81;;;-0.45;66.31
9969;BME280;5025;48.890;9.278;2023-02-11T04:41:03;100727.84;;;-0.45;66.73
9969;BME280;5025;48.890;9.278;2023-02-11T04:43:28;100727.84;;;-0.45;66.43
9969;BME280;5025;48.890;9.278;2023-02-11T04:45:57;100738.25;;;-0.42;66.76
9969;BME280;5025;48.890;9.278;2023-02-11T04:48:23;100730.50;;;-0.45;66.85
9969;BME280;5025;48.890;9.278;2023-02-11T04:50:48;100735.69;;;-0.44;66.71
9969;BME280;5025;48.890;9.278;2023-02-11T04:53:14;100738.25;;;-0.42;66.83
9969;BME280;5025;48.890;9.278;2023-02-11T04:55:39;100741.88;;;-0.43;67.05
9969;BME280;5025;48.890;9.278;2023-02-11T04:58:04;100744.41;;;-0.42;66.71
9969;BME280;5025;48.890;9.278;2023-02-11T05:00:29;100737.06;;;-0.38;66.76
9969;BME280;5025;48.890;9.278;2023-02-11T05:02:55;100731.66;;;-0.37;67.04
9969;BME280;5025;48.890;9.278;2023-02-11T05:05:20;100733.25;;;-0.34;66.82
9969;BME280;5025;48.890;9.278;2023-02-11T05:07:45;100725.06;;;-0.31;66.96
9969;BME280;5025;48.890;9.278;2023-02-11T05:10:12;100710.19;;;-0.33;66.77
9969;BME280;5025;48.890;9.278;2023-02-11T05:12:37;100703.72;;;-0.29;66.94
9969;BME280;5025;48.890;9.278;2023-02-11T05:15:03;100701.91;;;-0.29;66.82
9969;BME280;5025;48.890;9.278;2023-02-11T05:17:28;100694.59;;;-0.38;66.96
9969;BME280;5025;48.890;9.278;2023-02-11T05:19:53;100685.38;;;-0.45;67.30
9969;BME280;5025;48.890;9.278;2023-02-11T05:22:19;100686.97;;;-0.43;67.29
9969;BME280;5025;48.890;9.278;2023-02-11T05:24:45;100686.97;;;-0.43;67.24
9969;BME280;5025;48.890;9.278;2023-02-11T05:27:11;100688.91;;;-0.45;67.47
9969;BME280;5025;48.890;9.278;2023-02-11T05:29:36;100682.00;;;-0.47;67.36
9969;BME280;5025;48.890;9.278;2023-02-11T05:32:01;100689.84;;;-0.46;67.67
9969;BME280;5025;48.890;9.278;2023-02-11T05:34:27;100681.03;;;-0.46;67.52
9969;BME280;5025;48.890;9.278;2023-02-11T05:36:52;100680.06;;;-0.45;67.55
9969;BME280;5025;48.890;9.278;2023-02-11T05:39:17;100688.78;;;-0.43;67.63
9969;BME280;5025;48.890;9.278;2023-02-11T05:41:43;100688.34;;;-0.37;67.48
9969;BME280;5025;48.890;9.278;2023-02-11T05:44:08;100680.06;;;-0.32;67.45
9969;BME280;5025;48.890;9.278;2023-02-11T05:46:34;100676.09;;;-0.27;67.49
9969;BME280;5025;48.890;9.278;2023-02-11T05:48:59;100671.53;;;-0.25;67.39
9969;BME280;5025;48.890;9.278;2023-02-11T05:51:24;100674.91;;;-0.23;67.46
9969;BME280;5025;48.890;9.278;2023-02-11T05:53:50;100683.59;;;-0.21;67.63
9969;BME280;5025;48.890;9.278;2023-02-11T05:56:15;100685.91;;;-0.16;67.50
9969;BME280;5025;48.890;9.278;2023-02-11T05:58:40;100688.22;;;-0.11;67.47
9969;BME280;5025;48.890;9.278;2023-02-11T06:01:05;100697.69;;;-0.07;67.51
9969;BME280;5025;48.890;9.278;2023-02-11T06:03:31;100699.16;;;-0.03;67.37
9969;BME280;5025;48.890;9.278;2023-02-11T06:05:56;100707.75;;;0.01;67.40
9969;BME280;5025;48.890;9.278;2023-02-11T06:08:21;100703.03;;;0.04;67.25
9969;BME280;5025;48.890;9.278;2023-02-11T06:10:47;100703.03;;;0.04;67.77
9969;BME280;5025;48.890;9.278;2023-02-11T06:13:12;100709.84;;;0.08;67.42
9969;BME280;5025;48.890;9.278;2023-02-11T06:15:38;100703.31;;;0.12;67.41
9969;BME280;5025;48.890;9.278;2023-02-11T06:18:03;100697.03;;;0.13;67.48
9969;BME280;5025;48.890;9.278;2023-02-11T06:20:29;100698.75;;;0.14;67.38
9969;BME280;5025;48.890;9.278;2023-02-11T06:22:54;100699.47;;;0.16;67.53
9969;BME280;5025;48.890;9.278;2023-02-11T06:25:19;100701.91;;;0.20;67.47
9969;BME280;5025;48.890;9.278;2023-02-11T06:27:44;100712.41;;;0.21;67.53
9969;BME280;5025;48.890;9.278;2023-02-11T06:30:10;100699.00;;;0.23;67.25
9969;BME280;5025;48.890;9.278;2023-02-11T06:32:36;100698.06;;;0.24;67.30
9969;BME280;5025;48.890;9.278;2023-02-11T06:35:01;100692.97;;;0.21;67.58
9969;BME280;5025;48.890;9.278;2023-02-11T06:37:26;100683.31;;;0.20;67.58
9969;BME280;5025;48.890;9.278;2023-02-11T06:39:52;100693.94;;;0.20;67.50
9969;BME280;5025;48.890;9.278;2023-02-11T06:42:17;100699.13;;;0.21;67.54
9969;BME280;5025;48.890;9.278;2023-02-11T06:44:42;100709.75;;;0.21;67.70
9969;BME280;5025;48.890;9.278;2023-02-11T06:47:08;100705.28;;;0.22;67.70
9969;BME280;5025;48.890;9.278;2023-02-11T06:49:34;100715.69;;;0.25;67.50
9969;BME280;5025;48.890;9.278;2023-02-11T06:51:59;100714.00;;;0.24;67.51
9969;BME280;5025;48.890;9.278;2023-02-11T06:54:24;100719.09;;;0.27;67.59
9969;BME280;5025;48.890;9.278;2023-02-11T06:56:50;100709.41;;;0.26;67.72
9969;BME280;5025;48.890;9.278;2023-02-11T06:59:17;100708.47;;;0.27;67.58
9969;BME280;5025;48.890;9.278;2023-02-11T07:01:43;100715.44;;;0.28;67.61
9969;BME280;5025;48.890;9.278;2023-02-11T07:04:08;100712.91;;;0.26;67.61
9969;BME280;5025;48.890;9.278;2023-02-11T07:06:34;100714.84;;;0.24;67.64
9969;BME280;5025;48.890;9.278;2023-02-11T07:09:02;100710.38;;;0.25;67.74
9969;BME280;5025;48.890;9.278;2023-02-11T07:11:28;100719.81;;;0.29;67.90
9969;BME280;5025;48.890;9.278;2023-02-11T07:13:58;100712.78;;;0.28;67.79
9969;BME280;5025;48.890;9.278;2023-02-11T07:16:23;100718.00;;;0.29;68.20
9969;BME280;5025;48.890;9.278;2023-02-11T07:18:49;100712.69;;;0.29;67.93
9969;BME280;5025;48.890;9.278;2023-02-11T07:21:17;100706.19;;;0.33;67.86
9969;BME280;5025;48.890;9.278;2023-02-11T07:23:42;100698.22;;;0.33;67.81
9969;BME280;5025;48.890;9.278;2023-02-11T07:26:14;100702.34;;;0.38;67.97
9969;BME280;5025;48.890;9.278;2023-02-11T07:28:40;100714.53;;;0.40;67.80
9969;BME280;5025;48.890;9.278;2023-02-11T07:31:11;100725.16;;;0.40;67.96
9969;BME280;5025;48.890;9.278;2023-02-11T07:33:37;100718.19;;;0.39;68.09
9969;BME280;5025;48.890;9.278;2023-02-11T07:36:03;100715.75;;;0.36;68.41
9969;BME280;5025;48.890;9.278;2023-02-11T07:38:31;100709.22;;;0.40;68.07
9969;BME280;5025;48.890;9.278;2023-02-11T07:41:07;100706.78;;;0.37;68.33
9969;BME280;5025;48.890;9.278;2023-02-11T07:43:34;100698.94;;;0.35;68.41
9969;BME280;5025;48.890;9.278;2023-02-11T07:46:03;100707.78;;;0.36;68.40
9969;BME280;5025;48.890;9.278;2023-02-11T07:48:29;100713.09;;;0.36;68.22
9969;BME280;5025;48.890;9.278;2023-02-11T07:50:54;100702.56;;;0.34;68.28
9969;BME280;5025;48.890;9.278;2023-02-11T07:53:20;100695.22;;;0.38;68.44
9969;BME280;5025;48.890;9.278;2023-02-11T07:55:45;100698.47;;;0.42;68.30
9969;BME280;5025;48.890;9.278;2023-02-11T07:58:10;100680.50;;;0.45;68.61
9969;BME280;5025;48.890;9.278;2023-02-11T08:00:36;100692.56;;;0.49;68.27
9969;BME280;5025;48.890;9.278;2023-02-11T08:03:01;100680.75;;;0.53;68.44
9969;BME280;5025;48.890;9.278;2023-02-11T08:05:26;100681.47;;;0.56;68.61
9969;BME280;5025;48.890;9.278;2023-02-11T08:07:53;100675.94;;;0.59;68.60
9969;BME280;5025;48.890;9.278;2023-02-11T08:10:18;100676.31;;;0.65;68.57
9969;BME280;5025;48.890;9.278;2023-02-11T08:12:44;100689.38;;;0.68;68.43
9969;BME280;5025;48.890;9.278;2023-02-11T08:15:09;100687.94;;;0.76;68.34
9969;BME280;5025;48.890;9.278;2023-02-11T08:17:35;100703.28;;;0.83;68.43
9969;BME280;5025;48.890;9.278;2023-02-11T08:20:00;100700.16;;;0.89;68.31
9969;BME280;5025;48.890;9.278;2023-02-11T08:22:26;100717.59;;;0.94;68.48
9969;BME280;5025;48.890;9.278;2023-02-11T08:24:51;100715.41;;;0.99;68.56
9969;BME280;5025;48.890;9.278;2023-02-11T08:27:16;100716.75;;;1.04;68.68
9969;BME280;5025;48.890;9.278;2023-02-11T08:29:41;100718.09;;;1.10;68.33
9969;BME280;5025;48.890;9.278;2023-02-11T08:32:07;100715.91;;;1.15;68.32
9969;BME280;5025;48.890;9.278;2023-02-11T08:34:32;100712.06;;;1.19;68.33
9969;BME280;5025;48.890;9.278;2023-02-11T08:36:58;100707.44;;;1.21;68.15
9969;BME280;5025;48.890;9.278;2023-02-11T08:39:23;100705.25;;;1.27;68.48
9969;BME280;5025;48.890;9.278;2023-02-11T08:41:50;100687.25;;;1.30;68.38
9969;BME280;5025;48.890;9.278;2023-02-11T08:44:17;100692.81;;;1.38;68.15
9969;BME280;5025;48.890;9.278;2023-02-11T08:46:43;100688.53;;;1.47;68.07
9969;BME280;5025;48.890;9.278;2023-02-11T08:49:08;100685.50;;;1.52;68.05
9969;BME280;5025;48.890;9.278;2023-02-11T08:51:34;100681.53;;;1.57;67.89
9969;BME280;5025;48.890;9.278;2023-02-11T08:53:59;100687.94;;;1.66;67.93
9969;BME280;5025;48.890;9.278;2023-02-11T08:56:25;100688.28;;;1.73;67.96
9969;BME280;5025;48.890;9.278;2023-02-11T08:58:51;100696.22;;;1.84;67.78
9969;BME280;5025;48.890;9.278;2023-02-11T09:01:20;100705.31;;;1.93;67.77
9969;BME280;5025;48.890;9.278;2023-02-11T09:03:46;100703.97;;;1.99;67.82
9969;BME280;5025;48.890;9.278;2023-02-11T09:06:12;100700.41;;;2.09;67.39
9969;BME280;5025;48.890;9.278;2023-02-11T09:08:43;100708.63;;;2.18;67.09
9969;BME280;5025;48.890;9.278;2023-02-11T09:11:09;100696.59;;;2.23;67.15
9969;BME280;5025;48.890;9.278;2023-02-11T09:13:35;100697.38;;;2.35;67.09
9969;BME280;5025;48.890;9.278;2023-02-11T09:16:03;100682.06;;;2.48;66.78
9969;BME280;5025;48.890;9.278;2023-02-11T09:18:29;100673.53;;;2.55;66.62
9969;BME280;5025;48.890;9.278;2023-02-11T09:21:05;100675.03;;;2.68;66.42
9969;BME280;5025;48.890;9.278;2023-02-11T09:23:31;100671.09;;;2.73;66.27
9969;BME280;5025;48.890;9.278;2023-02-11T09:26:08;100670.59;;;2.79;66.43
9969;BME280;5025;48.890;9.278;2023-02-11T09:28:34;100665.31;;;2.89;66.27
9969;BME280;5025;48.890;9.278;2023-02-11T09:31:07;100667.06;;;2.99;66.13
9969;BME280;5025;48.890;9.278;2023-02-11T09:33:32;100669.50;;;3.12;65.79
9969;BME280;5025;48.890;9.278;2023-02-11T09:36:02;100664.31;;;3.20;65.85
9969;BME280;5025;48.890;9.278;2023-02-11T09:38:27;100673.66;;;3.36;65.31
9969;BME280;5025;48.890;9.278;2023-02-11T09:40:53;100671.75;;;3.48;65.11
9969;BME280;5025;48.890;9.278;2023-02-11T09:43:19;100678.25;;;3.55;64.85
9969;BME280;5025;48.890;9.278;2023-02-11T09:45:46;100680.63;;;3.58;64.79
9969;BME280;5025;48.890;9.278;2023-02-11T09:48:17;100679.38;;;3.62;65.10
9969;BME280;5025;48.890;9.278;2023-02-11T09:50:49;100688.66;;;3.68;64.78
9969;BME280;5025;48.890;9.278;2023-02-11T09:55:52;100698.25;;;3.90;64.23
9969;BME280;5025;48.890;9.278;2023-02-11T10:06:41;100708.16;;;4.28;63.49
9969;BME280;5025;48.890;9.278;2023-02-11T10:15:03;100698.88;;;4.62;62.76
9969;BME280;5025;48.890;9.278;2023-02-11T10:17:24;100698.41;;;4.76;62.48
9969;BME280;5025;48.890;9.278;2023-02-11T10:20:07;100704.75;;;4.85;62.09
9969;BME280;5025;48.890;9.278;2023-02-11T10:22:44;100703.59;;;4.97;62.10
9969;BME280;5025;48.890;9.278;2023-02-11T10:30:59;100694.75;;;5.52;60.84
9969;BME280;5025;48.890;9.278;2023-02-11T10:33:30;100699.00;;;5.55;60.64
9969;BME280;5025;48.890;9.278;2023-02-11T10:35:57;100702.59;;;5.64;60.55
9969;BME280;5025;48.890;9.278;2023-02-11T10:38:22;100701.56;;;5.74;60.45
9969;BME280;5025;48.890;9.278;2023-02-11T10:40:47;100691.41;;;5.78;60.16
9969;BME280;5025;48.890;9.278;2023-02-11T10:43:14;100686.94;;;5.87;59.83
9969;BME280;5025;48.890;9.278;2023-02-11T10:45:46;100676.22;;;5.97;59.61
9969;BME280;5025;48.890;9.278;2023-02-11T10:48:45;100676.13;;;6.06;59.36
9969;BME280;5025;48.890;9.278;2023-02-11T10:51:17;100672.19;;;6.01;58.74
9969;BME280;5025;48.890;9.278;2023-02-11T10:53:45;100658.19;;;6.07;58.76
9969;BME280;5025;48.890;9.278;2023-02-11T10:56:20;100660.66;;;6.00;58.50
9969;BME280;5025;48.890;9.278;2023-02-11T10:58:55;100653.72;;;5.98;58.33
9969;BME280;5025;48.890;9.278;2023-02-11T11:01:23;100653.84;;;6.06;58.21
9969;BME280;5025;48.890;9.278;2023-02-11T11:04:01;100645.19;;;6.12;57.89
9969;BME280;5025;48.890;9.278;2023-02-11T11:06:31;100638.56;;;6.24;57.98
9969;BME280;5025;48.890;9.278;2023-02-11T11:08:57;100633.13;;;6.34;57.79
9969;BME280;5025;48.890;9.278;2023-02-11T11:11:24;100635.38;;;6.47;57.47
9969;BME280;5025;48.890;9.278;2023-02-11T11:13:56;100639.19;;;6.62;57.39
9969;BME280;5025;48.890;9.278;2023-02-11T11:16:26;100642.22;;;6.68;57.29
9969;BME280;5025;48.890;9.278;2023-02-11T11:19:13;100634.25;;;6.76;57.25
9969;BME280;5025;48.890;9.278;2023-02-11T11:21:54;100639.38;;;6.95;57.31
9969;BME280;5025;48.890;9.278;2023-02-11T11:24:27;100634.94;;;7.12;57.05
9969;BME280;5025;48.890;9.278;2023-02-11T11:26:56;100626.22;;;7.18;57.29
9969;BME280;5025;48.890;9.278;2023-02-11T11:29:30;100625.91;;;7.22;58.00
9969;BME280;5025;48.890;9.278;2023-02-11T11:31:59;100626.69;;;7.06;59.06
9969;BME280;5025;48.890;9.278;2023-02-11T11:34:31;100621.31;;;7.06;59.05
9969;BME280;5025;48.890;9.278;2023-02-11T11:36:59;100621.72;;;7.19;58.73
9969;BME280;5025;48.890;9.278;2023-02-11T11:39:30;100624.28;;;7.29;58.43
9969;BME280;5025;48.890;9.278;2023-02-11T11:41:58;100618.06;;;7.28;58.38
9969;BME280;5025;48.890;9.278;2023-02-11T11:44:29;100617.09;;;7.38;58.85
9969;BME280;5025;48.890;9.278;2023-02-11T11:47:11;100622.50;;;7.46;58.55
9969;BME280;5025;48.890;9.278;2023-02-11T11:50:01;100606.69;;;7.51;57.78
9969;BME280;5025;48.890;9.278;2023-02-11T11:52:44;100618.50;;;7.66;57.70
9969;BME280;5025;48.890;9.278;2023-02-11T11:57:40;100619.91;;;7.87;57.52
9969;BME280;5025;48.890;9.278;2023-02-11T12:00:19;100617.22;;;8.12;56.78
9969;BME280;5025;48.890;9.278;2023-02-11T12:08:10;100606.97;;;8.65;56.03
9969;BME280;5025;48.890;9.278;2023-02-11T12:10:57;100610.66;;;8.64;55.52
9969;BME280;5025;48.890;9.278;2023-02-11T12:13:44;100611.00;;;8.69;55.31
9969;BME280;5025;48.890;9.278;2023-02-11T12:16:42;100609.09;;;8.94;55.28
9969;BME280;5025;48.890;9.278;2023-02-11T12:19:34;100608.00;;;9.11;55.07
9969;BME280;5025;48.890;9.278;2023-02-11T12:22:11;100612.06;;;9.07;54.66
9969;BME280;5025;48.890;9.278;2023-02-11T12:27:49;100606.09;;;9.28;54.51
9969;BME280;5025;48.890;9.278;2023-02-11T12:33:22;100614.56;;;9.17;54.52
9969;BME280;5025;48.890;9.278;2023-02-11T12:35:58;100616.66;;;9.38;54.25
9969;BME280;5025;48.890;9.278;2023-02-11T12:50:05;100616.00;;;9.36;53.99
9969;BME280;5025;48.890;9.278;2023-02-11T12:55:27;100607.94;;;9.28;54.39
9969;BME280;5025;48.890;9.278;2023-02-11T12:57:55;100592.75;;;9.35;54.37
9969;BME280;5025;48.890;9.278;2023-02-11T13:00:48;100590.31;;;9.48;53.97
9969;BME280;5025;48.890;9.278;2023-02-11T13:03:21;100596.25;;;9.44;53.66
9969;BME280;5025;48.890;9.278;2023-02-11T13:05:51;100586.38;;;9.28;53.47
9969;BME280;5025;48.890;9.278;2023-02-11T13:08:29;100577.31;;;9.21;54.06
9969;BME280;5025;48.890;9.278;2023-02-11T13:11:30;100574.66;;;9.75;53.51
9969;BME280;5025;48.890;9.278;2023-02-11T13:14:04;100574.22;;;9.86;52.08
9969;BME280;5025;48.890;9.278;2023-02-11T13:16:47;100566.81;;;9.57;52.32
9969;BME280;5025;48.890;9.278;2023-02-11T13:22:11;100569.66;;;9.64;52.50
9969;BME280;5025;48.890;9.278;2023-02-11T13:24:45;100562.34;;;9.96;51.72
9969;BME280;5025;48.890;9.278;2023-02-11T13:27:58;100559.63;;;9.96;50.79
9969;BME280;5025;48.890;9.278;2023-02-11T13:37:58;100562.59;;;9.86;51.05
9969;BME280;5025;48.890;9.278;2023-02-11T13:40:32;100571.09;;;9.51;51.64
9969;BME280;5025;48.890;9.278;2023-02-11T13:43:00;100565.78;;;9.35;52.60
9969;BME280;5025;48.890;9.278;2023-02-11T13:45:41;100568.72;;;9.25;52.21
9969;BME280;5025;48.890;9.278;2023-02-11T13:48:36;100562.03;;;9.44;52.17
9969;BME280;5025;48.890;9.278;2023-02-11T13:51:05;100556.94;;;9.96;51.69
9969;BME280;5025;48.890;9.278;2023-02-11T13:53:50;100550.91;;;10.32;49.47
9969;BME280;5025;48.890;9.278;2023-02-11T13:56:37;100556.06;;;9.80;49.69
9969;BME280;5025;48.890;9.278;2023-02-11T13:59:05;100551.91;;;9.69;49.03
9969;BME280;5025;48.890;9.278;2023-02-11T14:10:57;100549.13;;;10.24;48.49
9969;BME280;5025;48.890;9.278;2023-02-11T14:16:06;100548.09;;;10.63;47.25
9969;BME280;5025;48.890;9.278;2023-02-11T14:29:14;100557.19;;;10.92;46.11
9969;BME280;5025;48.890;9.278;2023-02-11T14:32:04;100560.03;;;10.31;47.04
9969;BME280;5025;48.890;9.278;2023-02-11T14:37:44;100559.63;;;10.57;46.90
9969;BME280;5025;48.890;9.278;2023-02-11T14:40:29;100566.88;;;10.56;46.23
9969;BME280;5025;48.890;9.278;2023-02-11T14:43:02;100560.47;;;10.19;46.29
9969;BME280;5025;48.890;9.278;2023-02-11T14:45:30;100561.75;;;9.85;47.04
9969;BME280;5025;48.890;9.278;2023-02-11T14:48:02;100576.50;;;9.43;48.27
9969;BME280;5025;48.890;9.278;2023-02-11T14:50:33;100567.28;;;9.38;48.69
9969;BME280;5025;48.890;9.278;2023-02-11T14:53:01;100573.16;;;9.10;49.08
9969;BME280;5025;48.890;9.278;2023-02-11T14:58:12;100572.69;;;9.06;50.76
9969;BME280;5025;48.890;9.278;2023-02-11T15:01:04;100586.88;;;8.84;51.76
9969;BME280;5025;48.890;9.278;2023-02-11T15:03:46;100585.44;;;8.56;52.65
9969;BME280;5025;48.890;9.278;2023-02-11T15:06:17;100588.13;;;8.48;53.33
9969;BME280;5025;48.890;9.278;2023-02-11T15:09:12;100584.91;;;8.61;53.25
9969;BME280;5025;48.890;9.278;2023-02-11T15:11:40;100585.78;;;8.61;53.28
9969;BME280;5025;48.890;9.278;2023-02-11T15:14:17;100590.66;;;8.50;53.63
9969;BME280;5025;48.890;9.278;2023-02-11T15:16:45;100582.09;;;8.46;53.64
9969;BME280;5025;48.890;9.278;2023-02-11T15:21:54;100593.00;;;8.69;53.56
9969;BME280;5025;48.890;9.278;2023-02-11T15:27:02;100590.53;;;8.99;52.59
9969;BME280;5025;48.890;9.278;2023-02-11T15:29:34;100589.19;;;9.03;52.34
9969;BME280;5025;48.890;9.278;2023-02-11T15:32:21;100597.25;;;9.11;52.46
9969;BME280;5025;48.890;9.278;2023-02-11T15:34:48;100598.94;;;9.12;52.48